sensor_id;sensor_type;location;lat;lon;timestamp;P1;P2;P0
73146;PMS7003;61345;48.922;2.244;2022-12-18T00:00:57;36.50;24.50;16.50
73146;PMS7003;61345;48.922;2.244;2022-12-18T00:03:22;28.00;21.00;13.50
73146;PMS7003;61345;48.922;2.244;2022-12-18T00:05:48;41.25;25.25;15.00
73146;PMS7003;61345;48.922;2.244;2022-12-18T00:08:15;30.50;24.50;13.50
73146;PMS7003;61345;48.922;2.244;2022-12-18T00:10:40;33.50;22.00;16.00
73146;PMS7003;61345;48.922;2.244;2022-12-18T00:13:06;33.25;24.50;16.00
73146;PMS7003;61345;48.922;2.244;2022-12-18T00:15:34;34.00;24.00;15.00
73146;PMS7003;61345;48.922;2.244;2022-12-18T00:18:00;42.50;26.50;16.00
73146;PMS7003;61345;48.922;2.244;2022-12-18T00:20:26;36.75;28.50;18.00
73146;PMS7003;61345;48.922;2.244;2022-12-18T00:22:51;39.50;25.00;15.25
73146;PMS7003;61345;48.922;2.244;2022-12-18T00:25:17;39.75;24.00;16.00
73146;PMS7003;61345;48.922;2.244;2022-12-18T00:27:43;36.00;19.50;13.50
73146;PMS7003;61345;48.922;2.244;2022-12-18T00:30:09;29.75;18.00;12.00
73146;PMS7003;61345;48.922;2.244;2022-12-18T00:32:35;29.00;22.00;13.50
73146;PMS7003;61345;48.922;2.244;2022-12-18T00:35:00;37.75;24.75;18.00
73146;PMS7003;61345;48.922;2.244;2022-12-18T00:37:26;30.25;25.50;16.00
73146;PMS7003;61345;48.922;2.244;2022-12-18T00:39:58;26.00;24.00;16.75
73146;PMS7003;61345;48.922;2.244;2022-12-18T00:42:24;24.25;18.75;14.50
73146;PMS7003;61345;48.922;2.244;2022-12-18T00:45:08;34.00;21.00;14.00
73146;PMS7003;61345;48.922;2.244;2022-12-18T00:47:33;31.50;24.50;17.00
73146;PMS7003;61345;48.922;2.244;2022-12-18T00:50:01;30.50;20.00;12.75
73146;PMS7003;61345;48.922;2.244;2022-12-18T00:52:30;32.00;21.25;15.75
73146;PMS7003;61345;48.922;2.244;2022-12-18T00:54:55;29.00;22.00;16.25
73146;PMS7003;61345;48.922;2.244;2022-12-18T00:57:21;26.25;16.00;11.00
73146;PMS7003;61345;48.922;2.244;2022-12-18T00:59:46;30.00;22.00;13.50
73146;PMS7003;61345;48.922;2.244;2022-12-18T01:02:12;32.50;24.25;16.50
73146;PMS7003;61345;48.922;2.244;2022-12-18T01:04:40;28.25;17.75;9.75
73146;PMS7003;61345;48.922;2.244;2022-12-18T01:07:05;32.50;21.75;18.25
73146;PMS7003;61345;48.922;2.244;2022-12-18T01:09:30;25.50;18.25;11.50
73146;PMS7003;61345;48.922;2.244;2022-12-18T01:11:56;29.75;25.25;14.75
73146;PMS7003;61345;48.922;2.244;2022-12-18T01:14:24;30.50;27.75;16.25
73146;PMS7003;61345;48.922;2.244;2022-12-18T01:16:49;34.75;25.00;15.50
73146;PMS7003;61345;48.922;2.244;2022-12-18T01:19:15;27.50;18.75;13.00
73146;PMS7003;61345;48.922;2.244;2022-12-18T01:21:40;37.00;22.00;15.75
73146;PMS7003;61345;48.922;2.244;2022-12-18T01:24:09;27.75;20.75;13.00
73146;PMS7003;61345;48.922;2.244;2022-12-18T01:26:36;32.00;24.25;16.25
73146;PMS7003;61345;48.922;2.244;2022-12-18T01:29:02;31.75;19.00;13.00
73146;PMS7003;61345;48.922;2.244;2022-12-18T01:31:29;25.25;23.25;15.50
73146;PMS7003;61345;48.922;2.244;2022-12-18T01:33:57;29.00;23.50;15.50
73146;PMS7003;61345;48.922;2.244;2022-12-18T01:36:31;39.50;23.75;16.75
73146;PMS7003;61345;48.922;2.244;2022-12-18T01:39:03;16.75;14.50;7.50
73146;PMS7003;61345;48.922;2.244;2022-12-18T01:41:32;24.25;18.75;14.50
73146;PMS7003;61345;48.922;2.244;2022-12-18T01:47:12;34.50;19.75;14.75
73146;PMS7003;61345;48.922;2.244;2022-12-18T01:49:41;31.25;23.50;16.00
73146;PMS7003;61345;48.922;2.244;2022-12-18T01:52:06;25.00;18.00;14.00
73146;PMS7003;61345;48.922;2.244;2022-12-18T01:54:35;26.50;23.25;15.50
73146;PMS7003;61345;48.922;2.244;2022-12-18T01:57:10;32.00;27.25;16.50
73146;PMS7003;61345;48.922;2.244;2022-12-18T01:59:36;34.00;27.00;15.75
73146;PMS7003;61345;48.922;2.244;2022-12-18T02:02:02;35.00;26.50;16.50
73146;PMS7003;61345;48.922;2.244;2022-12-18T02:04:28;23.75;20.25;14.00
73146;PMS7003;61345;48.922;2.244;2022-12-18T02:09:30;34.00;25.00;16.75
73146;PMS7003;61345;48.922;2.244;2022-12-18T02:12:00;33.75;25.25;18.75
73146;PMS7003;61345;48.922;2.244;2022-12-18T02:14:35;44.50;27.00;16.50
73146;PMS7003;61345;48.922;2.244;2022-12-18T02:17:10;30.75;24.25;17.50
73146;PMS7003;61345;48.922;2.244;2022-12-18T02:19:46;32.75;21.50;14.50
73146;PMS7003;61345;48.922;2.244;2022-12-18T02:28:08;23.00;20.00;14.25
73146;PMS7003;61345;48.922;2.244;2022-12-18T02:30:36;32.00;20.00;12.00
73146;PMS7003;61345;48.922;2.244;2022-12-18T02:33:03;37.00;21.00;14.00
73146;PMS7003;61345;48.922;2.244;2022-12-18T02:35:30;34.00;22.00;16.00
73146;PMS7003;61345;48.922;2.244;2022-12-18T02:37:56;27.75;21.25;16.00
73146;PMS7003;61345;48.922;2.244;2022-12-18T02:40:23;29.00;19.00;13.25
73146;PMS7003;61345;48.922;2.244;2022-12-18T02:42:52;32.00;21.50;13.25
73146;PMS7003;61345;48.922;2.244;2022-12-18T02:45:17;30.25;23.50;14.50
73146;PMS7003;61345;48.922;2.244;2022-12-18T02:47:44;26.00;18.00;12.25
73146;PMS7003;61345;48.922;2.244;2022-12-18T02:58:55;21.25;16.50;10.50
73146;PMS7003;61345;48.922;2.244;2022-12-18T03:01:52;23.00;14.25;7.50
73146;PMS7003;61345;48.922;2.244;2022-12-18T03:07:09;26.50;14.50;9.00
73146;PMS7003;61345;48.922;2.244;2022-12-18T03:09:40;30.75;23.75;13.00
73146;PMS7003;61345;48.922;2.244;2022-12-18T03:12:14;29.50;20.00;14.50
73146;PMS7003;61345;48.922;2.244;2022-12-18T03:14:49;29.00;22.50;14.00
73146;PMS7003;61345;48.922;2.244;2022-12-18T03:17:20;23.00;18.50;15.00
73146;PMS7003;61345;48.922;2.244;2022-12-18T03:19:46;24.50;17.50;13.25
73146;PMS7003;61345;48.922;2.244;2022-12-18T03:22:12;24.00;18.75;13.00
73146;PMS7003;61345;48.922;2.244;2022-12-18T03:24:38;24.50;21.25;12.50
73146;PMS7003;61345;48.922;2.244;2022-12-18T03:27:05;23.75;15.25;12.00
73146;PMS7003;61345;48.922;2.244;2022-12-18T03:29:35;34.00;21.50;12.00
73146;PMS7003;61345;48.922;2.244;2022-12-18T03:32:07;32.50;23.00;13.75
73146;PMS7003;61345;48.922;2.244;2022-12-18T03:34:37;30.50;19.50;13.00
73146;PMS7003;61345;48.922;2.244;2022-12-18T03:37:04;27.25;20.00;13.50
73146;PMS7003;61345;48.922;2.244;2022-12-18T03:39:30;24.75;18.00;13.25
73146;PMS7003;61345;48.922;2.244;2022-12-18T03:44:40;34.50;19.50;12.50
73146;PMS7003;61345;48.922;2.244;2022-12-18T03:50:10;22.25;16.25;7.00
73146;PMS7003;61345;48.922;2.244;2022-12-18T03:55:30;25.25;19.00;13.00
73146;PMS7003;61345;48.922;2.244;2022-12-18T03:57:58;31.50;24.25;15.00
73146;PMS7003;61345;48.922;2.244;2022-12-18T04:00:24;34.00;23.75;15.25
73146;PMS7003;61345;48.922;2.244;2022-12-18T04:02:51;29.25;21.25;13.00
73146;PMS7003;61345;48.922;2.244;2022-12-18T04:05:18;35.50;19.50;14.75
73146;PMS7003;61345;48.922;2.244;2022-12-18T04:07:45;24.75;19.00;12.25
73146;PMS7003;61345;48.922;2.244;2022-12-18T04:10:12;32.00;24.25;18.00
73146;PMS7003;61345;48.922;2.244;2022-12-18T04:12:39;27.75;22.25;15.25
73146;PMS7003;61345;48.922;2.244;2022-12-18T04:15:05;37.50;22.75;13.00
73146;PMS7003;61345;48.922;2.244;2022-12-18T04:17:31;32.25;21.25;15.00
73146;PMS7003;61345;48.922;2.244;2022-12-18T04:19:56;43.00;23.75;14.00
73146;PMS7003;61345;48.922;2.244;2022-12-18T04:22:22;29.50;18.75;13.00
73146;PMS7003;61345;48.922;2.244;2022-12-18T04:24:47;35.50;20.75;15.75
73146;PMS7003;61345;48.922;2.244;2022-12-18T04:27:12;28.00;21.00;13.50
73146;PMS7003;61345;48.922;2.244;2022-12-18T04:29:40;36.50;24.25;15.75
73146;PMS7003;61345;48.922;2.244;2022-12-18T04:32:06;24.50;17.50;15.00
73146;PMS7003;61345;48.922;2.244;2022-12-18T04:34:32;46.00;28.00;18.00
73146;PMS7003;61345;48.922;2.244;2022-12-18T04:36:59;30.25;21.50;11.00
73146;PMS7003;61345;48.922;2.244;2022-12-18T04:39:25;34.75;22.25;13.00
73146;PMS7003;61345;48.922;2.244;2022-12-18T04:41:50;26.25;22.00;13.50
73146;PMS7003;61345;48.922;2.244;2022-12-18T04:44:17;29.25;22.25;14.00
73146;PMS7003;61345;48.922;2.244;2022-12-18T04:46:45;27.00;18.75;14.00
73146;PMS7003;61345;48.922;2.244;2022-12-18T04:49:12;32.25;26.50;14.00
73146;PMS7003;61345;48.922;2.244;2022-12-18T04:51:39;22.75;18.50;13.50
73146;PMS7003;61345;48.922;2.244;2022-12-18T04:54:05;34.50;24.00;14.75
73146;PMS7003;61345;48.922;2.244;2022-12-18T04:56:30;30.75;21.00;13.00
73146;PMS7003;61345;48.922;2.244;2022-12-18T04:58:56;27.00;18.25;11.50
73146;PMS7003;61345;48.922;2.244;2022-12-18T05:01:22;22.75;16.50;9.25
73146;PMS7003;61345;48.922;2.244;2022-12-18T05:03:47;30.75;21.75;15.00
73146;PMS7003;61345;48.922;2.244;2022-12-18T05:06:13;30.25;22.50;15.75
73146;PMS7003;61345;48.922;2.244;2022-12-18T05:08:39;23.50;20.50;12.25
73146;PMS7003;61345;48.922;2.244;2022-12-18T05:11:11;24.00;21.00;15.50
73146;PMS7003;61345;48.922;2.244;2022-12-18T05:13:40;29.00;20.50;12.75
73146;PMS7003;61345;48.922;2.244;2022-12-18T05:16:06;30.75;13.00;10.00
73146;PMS7003;61345;48.922;2.244;2022-12-18T05:18:32;36.25;27.75;17.00
73146;PMS7003;61345;48.922;2.244;2022-12-18T05:20:58;36.00;23.00;15.00
73146;PMS7003;61345;48.922;2.244;2022-12-18T05:23:24;22.00;16.00;12.50
73146;PMS7003;61345;48.922;2.244;2022-12-18T05:25:53;33.25;18.25;13.00
73146;PMS7003;61345;48.922;2.244;2022-12-18T05:28:24;32.75;18.75;10.50
73146;PMS7003;61345;48.922;2.244;2022-12-18T05:30:50;27.75;20.50;14.50
73146;PMS7003;61345;48.922;2.244;2022-12-18T05:33:20;34.25;24.00;15.00
73146;PMS7003;61345;48.922;2.244;2022-12-18T05:35:50;31.25;22.00;14.00
73146;PMS7003;61345;48.922;2.244;2022-12-18T05:38:16;27.00;21.50;15.00
73146;PMS7003;61345;48.922;2.244;2022-12-18T05:40:42;24.25;16.00;15.00
73146;PMS7003;61345;48.922;2.244;2022-12-18T05:43:08;21.50;17.00;13.00
73146;PMS7003;61345;48.922;2.244;2022-12-18T05:45:36;30.50;21.75;14.75
73146;PMS7003;61345;48.922;2.244;2022-12-18T05:48:03;24.25;18.50;15.00
73146;PMS7003;61345;48.922;2.244;2022-12-18T05:50:28;26.75;19.25;13.00
73146;PMS7003;61345;48.922;2.244;2022-12-18T05:52:56;32.25;21.00;12.00
73146;PMS7003;61345;48.922;2.244;2022-12-18T05:55:22;24.25;18.50;15.00
73146;PMS7003;61345;48.922;2.244;2022-12-18T05:57:47;26.00;20.00;14.50
73146;PMS7003;61345;48.922;2.244;2022-12-18T06:00:13;22.25;16.50;9.00
73146;PMS7003;61345;48.922;2.244;2022-12-18T06:02:39;37.25;26.50;16.00
73146;PMS7003;61345;48.922;2.244;2022-12-18T06:05:04;35.25;22.25;12.75
73146;PMS7003;61345;48.922;2.244;2022-12-18T06:07:30;29.00;23.50;15.00
73146;PMS7003;61345;48.922;2.244;2022-12-18T06:09:55;29.75;23.00;15.00
73146;PMS7003;61345;48.922;2.244;2022-12-18T06:12:21;26.00;18.00;12.25
73146;PMS7003;61345;48.922;2.244;2022-12-18T06:14:46;26.25;25.50;14.50
73146;PMS7003;61345;48.922;2.244;2022-12-18T06:17:14;22.00;18.50;12.50
73146;PMS7003;61345;48.922;2.244;2022-12-18T06:19:39;28.50;24.00;16.00
73146;PMS7003;61345;48.922;2.244;2022-12-18T06:22:07;33.50;22.50;14.00
73146;PMS7003;61345;48.922;2.244;2022-12-18T06:24:32;29.00;18.75;13.00
73146;PMS7003;61345;48.922;2.244;2022-12-18T06:26:58;29.50;15.75;12.50
73146;PMS7003;61345;48.922;2.244;2022-12-18T06:29:25;32.50;18.50;14.50
73146;PMS7003;61345;48.922;2.244;2022-12-18T06:31:51;25.00;18.50;9.50
73146;PMS7003;61345;48.922;2.244;2022-12-18T06:34:24;30.50;20.00;13.50
73146;PMS7003;61345;48.922;2.244;2022-12-18T06:36:51;33.50;21.00;13.00
73146;PMS7003;61345;48.922;2.244;2022-12-18T06:39:19;24.25;19.00;12.00
73146;PMS7003;61345;48.922;2.244;2022-12-18T06:41:45;22.00;19.50;14.50
73146;PMS7003;61345;48.922;2.244;2022-12-18T06:44:10;32.50;24.25;16.00
73146;PMS7003;61345;48.922;2.244;2022-12-18T06:46:36;28.00;20.00;12.00
73146;PMS7003;61345;48.922;2.244;2022-12-18T06:49:02;27.75;18.75;13.50
73146;PMS7003;61345;48.922;2.244;2022-12-18T06:51:28;26.50;21.75;12.50
73146;PMS7003;61345;48.922;2.244;2022-12-18T06:53:53;24.25;16.50;12.00
73146;PMS7003;61345;48.922;2.244;2022-12-18T06:56:19;27.25;21.00;14.50
73146;PMS7003;61345;48.922;2.244;2022-12-18T06:58:44;27.25;23.00;15.50
73146;PMS7003;61345;48.922;2.244;2022-12-18T07:01:10;28.00;24.00;13.50
73146;PMS7003;61345;48.922;2.244;2022-12-18T07:03:40;18.25;12.75;9.25
73146;PMS7003;61345;48.922;2.244;2022-12-18T07:06:11;30.50;16.50;11.00
73146;PMS7003;61345;48.922;2.244;2022-12-18T07:08:38;28.75;20.25;14.50
73146;PMS7003;61345;48.922;2.244;2022-12-18T07:11:04;27.00;17.00;12.75
73146;PMS7003;61345;48.922;2.244;2022-12-18T07:13:30;21.50;18.00;11.00
73146;PMS7003;61345;48.922;2.244;2022-12-18T07:16:02;16.00;15.00;9.00
73146;PMS7003;61345;48.922;2.244;2022-12-18T07:18:28;22.50;17.50;12.75
73146;PMS7003;61345;48.922;2.244;2022-12-18T07:20:54;29.50;22.00;18.00
73146;PMS7003;61345;48.922;2.244;2022-12-18T07:23:19;23.25;17.00;12.50
73146;PMS7003;61345;48.922;2.244;2022-12-18T07:25:45;25.25;20.00;12.25
73146;PMS7003;61345;48.922;2.244;2022-12-18T07:28:13;31.50;24.50;12.75
73146;PMS7003;61345;48.922;2.244;2022-12-18T07:30:48;32.25;21.00;15.50
73146;PMS7003;61345;48.922;2.244;2022-12-18T07:33:16;21.00;20.00;13.00
73146;PMS7003;61345;48.922;2.244;2022-12-18T07:35:44;29.50;20.00;13.50
73146;PMS7003;61345;48.922;2.244;2022-12-18T07:38:12;27.00;20.50;14.00
73146;PMS7003;61345;48.922;2.244;2022-12-18T07:40:39;24.00;19.00;11.50
73146;PMS7003;61345;48.922;2.244;2022-12-18T07:43:05;24.50;20.50;13.00
73146;PMS7003;61345;48.922;2.244;2022-12-18T07:45:32;26.50;15.75;12.75
73146;PMS7003;61345;48.922;2.244;2022-12-18T07:47:58;27.25;20.00;15.00
73146;PMS7003;61345;48.922;2.244;2022-12-18T07:50:23;36.75;24.25;12.50
73146;PMS7003;61345;48.922;2.244;2022-12-18T07:52:51;29.50;18.75;13.50
73146;PMS7003;61345;48.922;2.244;2022-12-18T07:55:28;23.50;18.50;12.00
73146;PMS7003;61345;48.922;2.244;2022-12-18T07:57:56;25.00;21.75;15.50
73146;PMS7003;61345;48.922;2.244;2022-12-18T08:00:25;28.25;18.00;10.00
73146;PMS7003;61345;48.922;2.244;2022-12-18T08:02:53;29.00;19.00;10.00
73146;PMS7003;61345;48.922;2.244;2022-12-18T08:05:23;21.50;18.25;12.50
73146;PMS7003;61345;48.922;2.244;2022-12-18T08:07:51;32.50;24.00;13.00
73146;PMS7003;61345;48.922;2.244;2022-12-18T08:13:03;27.75;20.75;15.00
73146;PMS7003;61345;48.922;2.244;2022-12-18T08:15:31;26.50;18.00;12.00
73146;PMS7003;61345;48.922;2.244;2022-12-18T08:17:59;23.25;18.50;13.50
73146;PMS7003;61345;48.922;2.244;2022-12-18T08:20:45;23.75;17.50;12.25
73146;PMS7003;61345;48.922;2.244;2022-12-18T08:23:10;31.00;21.25;13.00
73146;PMS7003;61345;48.922;2.244;2022-12-18T08:25:36;36.50;23.00;14.00
73146;PMS7003;61345;48.922;2.244;2022-12-18T08:28:01;33.50;22.50;12.00
73146;PMS7003;61345;48.922;2.244;2022-12-18T08:30:27;24.25;19.00;13.50
73146;PMS7003;61345;48.922;2.244;2022-12-18T08:32:54;34.50;23.00;15.00
73146;PMS7003;61345;48.922;2.244;2022-12-18T08:35:20;37.25;25.75;16.50
73146;PMS7003;61345;48.922;2.244;2022-12-18T08:37:45;31.50;23.75;16.00
73146;PMS7003;61345;48.922;2.244;2022-12-18T08:40:11;24.00;19.50;13.25
73146;PMS7003;61345;48.922;2.244;2022-12-18T08:42:37;35.75;25.50;16.00
73146;PMS7003;61345;48.922;2.244;2022-12-18T08:45:21;25.00;21.25;13.50
73146;PMS7003;61345;48.922;2.244;2022-12-18T08:47:46;36.25;19.25;14.00
73146;PMS7003;61345;48.922;2.244;2022-12-18T08:50:12;34.75;18.50;12.50
73146;PMS7003;61345;48.922;2.244;2022-12-18T08:52:37;31.50;22.00;14.75
73146;PMS7003;61345;48.922;2.244;2022-12-18T08:55:03;25.75;19.50;12.50
73146;PMS7003;61345;48.922;2.244;2022-12-18T08:57:29;26.00;18.75;13.00
73146;PMS7003;61345;48.922;2.244;2022-12-18T08:59:54;37.00;24.50;15.25
73146;PMS7003;61345;48.922;2.244;2022-12-18T09:02:19;26.25;20.25;12.75
73146;PMS7003;61345;48.922;2.244;2022-12-18T09:04:46;29.50;27.75;16.00
73146;PMS7003;61345;48.922;2.244;2022-12-18T09:07:12;33.75;27.50;17.75
73146;PMS7003;61345;48.922;2.244;2022-12-18T09:09:38;31.50;26.75;15.25
73146;PMS7003;61345;48.922;2.244;2022-12-18T09:12:03;33.50;23.75;16.50
73146;PMS7003;61345;48.922;2.244;2022-12-18T09:14:31;31.50;21.00;16.50
73146;PMS7003;61345;48.922;2.244;2022-12-18T09:17:03;33.25;24.00;13.00
73146;PMS7003;61345;48.922;2.244;2022-12-18T09:19:34;27.25;20.75;14.00
73146;PMS7003;61345;48.922;2.244;2022-12-18T09:21:59;24.75;20.75;13.50
73146;PMS7003;61345;48.922;2.244;2022-12-18T09:24:27;35.25;21.25;15.00
73146;PMS7003;61345;48.922;2.244;2022-12-18T09:27:11;30.00;21.00;14.00
73146;PMS7003;61345;48.922;2.244;2022-12-18T09:29:44;34.25;23.50;16.00
73146;PMS7003;61345;48.922;2.244;2022-12-18T09:32:33;32.00;24.25;17.00
73146;PMS7003;61345;48.922;2.244;2022-12-18T09:34:58;36.50;23.50;15.50
73146;PMS7003;61345;48.922;2.244;2022-12-18T09:37:24;22.25;19.00;11.50
73146;PMS7003;61345;48.922;2.244;2022-12-18T09:39:52;34.75;21.25;15.00
73146;PMS7003;61345;48.922;2.244;2022-12-18T09:42:19;35.50;25.00;15.25
73146;PMS7003;61345;48.922;2.244;2022-12-18T09:44:48;40.50;26.25;16.50
73146;PMS7003;61345;48.922;2.244;2022-12-18T09:49:55;42.25;24.75;18.00
73146;PMS7003;61345;48.922;2.244;2022-12-18T09:52:43;28.50;23.50;15.00
73146;PMS7003;61345;48.922;2.244;2022-12-18T09:58:07;36.25;25.50;16.00
73146;PMS7003;61345;48.922;2.244;2022-12-18T10:00:54;37.00;26.00;15.00
73146;PMS7003;61345;48.922;2.244;2022-12-18T10:03:20;33.25;25.75;17.50
73146;PMS7003;61345;48.922;2.244;2022-12-18T10:14:01;30.75;20.00;14.50
73146;PMS7003;61345;48.922;2.244;2022-12-18T10:16:38;30.50;26.75;17.00
73146;PMS7003;61345;48.922;2.244;2022-12-18T10:25:15;30.25;24.75;16.00
73146;PMS7003;61345;48.922;2.244;2022-12-18T10:27:42;31.00;24.25;15.50
73146;PMS7003;61345;48.922;2.244;2022-12-18T10:36:37;29.75;22.00;15.00
73146;PMS7003;61345;48.922;2.244;2022-12-18T10:39:16;37.00;26.00;16.00
73146;PMS7003;61345;48.922;2.244;2022-12-18T10:41:43;33.75;27.00;15.75
73146;PMS7003;61345;48.922;2.244;2022-12-18T10:44:10;36.00;22.50;16.00
73146;PMS7003;61345;48.922;2.244;2022-12-18T10:46:46;39.00;31.25;17.50
73146;PMS7003;61345;48.922;2.244;2022-12-18T10:49:26;34.75;26.25;15.25
73146;PMS7003;61345;48.922;2.244;2022-12-18T10:52:05;37.75;31.25;19.25
73146;PMS7003;61345;48.922;2.244;2022-12-18T10:54:33;29.25;23.00;16.00
73146;PMS7003;61345;48.922;2.244;2022-12-18T10:57:15;36.75;27.00;16.00
73146;PMS7003;61345;48.922;2.244;2022-12-18T11:02:47;37.00;27.50;18.50
73146;PMS7003;61345;48.922;2.244;2022-12-18T11:05:27;42.50;28.00;19.50
73146;PMS7003;61345;48.922;2.244;2022-12-18T11:07:57;36.00;23.00;15.75
73146;PMS7003;61345;48.922;2.244;2022-12-18T11:10:33;41.00;28.50;18.25
73146;PMS7003;61345;48.922;2.244;2022-12-18T11:13:11;36.25;21.75;16.50
73146;PMS7003;61345;48.922;2.244;2022-12-18T11:15:40;46.00;26.50;18.00
73146;PMS7003;61345;48.922;2.244;2022-12-18T11:18:26;38.50;30.25;18.00
73146;PMS7003;61345;48.922;2.244;2022-12-18T11:20:55;26.25;15.00;12.75
73146;PMS7003;61345;48.922;2.244;2022-12-18T11:23:51;37.00;26.00;18.00
73146;PMS7003;61345;48.922;2.244;2022-12-18T11:26:17;43.75;24.25;16.00
73146;PMS7003;61345;48.922;2.244;2022-12-18T11:28:51;41.50;25.00;17.50
73146;PMS7003;61345;48.922;2.244;2022-12-18T11:31:25;41.00;28.50;17.50
73146;PMS7003;61345;48.922;2.244;2022-12-18T11:36:31;32.50;27.75;19.00
73146;PMS7003;61345;48.922;2.244;2022-12-18T11:38:59;27.50;23.00;18.00
73146;PMS7003;61345;48.922;2.244;2022-12-18T11:41:35;31.25;25.00;19.00
73146;PMS7003;61345;48.922;2.244;2022-12-18T11:44:32;43.00;24.75;18.00
73146;PMS7003;61345;48.922;2.244;2022-12-18T11:47:19;46.25;27.25;19.25
73146;PMS7003;61345;48.922;2.244;2022-12-18T11:49:50;33.50;24.75;18.00
73146;PMS7003;61345;48.922;2.244;2022-12-18T11:55:15;40.50;23.75;18.75
73146;PMS7003;61345;48.922;2.244;2022-12-18T11:57:59;31.25;25.00;21.00
73146;PMS7003;61345;48.922;2.244;2022-12-18T12:01:12;38.00;27.25;12.00
73146;PMS7003;61345;48.922;2.244;2022-12-18T12:14:43;36.75;24.25;14.50
73146;PMS7003;61345;48.922;2.244;2022-12-18T12:20:19;39.50;27.75;19.00
73146;PMS7003;61345;48.922;2.244;2022-12-18T12:25:48;31.50;23.25;16.50
73146;PMS7003;61345;48.922;2.244;2022-12-18T12:39:08;43.00;33.00;21.75
73146;PMS7003;61345;48.922;2.244;2022-12-18T12:41:37;40.25;32.50;21.25
73146;PMS7003;61345;48.922;2.244;2022-12-18T12:44:28;42.50;29.75;20.00
73146;PMS7003;61345;48.922;2.244;2022-12-18T12:46:58;42.00;26.50;16.50
73146;PMS7003;61345;48.922;2.244;2022-12-18T12:49:26;46.00;32.75;21.25
73146;PMS7003;61345;48.922;2.244;2022-12-18T12:54:53;37.25;24.00;14.50
73146;PMS7003;61345;48.922;2.244;2022-12-18T12:57:37;41.75;29.50;19.50
73146;PMS7003;61345;48.922;2.244;2022-12-18T13:00:07;36.00;22.00;15.75
73146;PMS7003;61345;48.922;2.244;2022-12-18T13:02:47;33.75;28.00;21.25
73146;PMS7003;61345;48.922;2.244;2022-12-18T13:08:00;40.75;28.00;18.25
73146;PMS7003;61345;48.922;2.244;2022-12-18T13:10:32;45.50;29.75;16.50
73146;PMS7003;61345;48.922;2.244;2022-12-18T13:13:12;45.50;32.25;21.00
73146;PMS7003;61345;48.922;2.244;2022-12-18T13:15:44;34.25;23.00;12.75
73146;PMS7003;61345;48.922;2.244;2022-12-18T13:18:12;45.00;30.50;21.75
73146;PMS7003;61345;48.922;2.244;2022-12-18T13:20:41;39.00;35.00;24.75
73146;PMS7003;61345;48.922;2.244;2022-12-18T13:25:55;38.25;30.50;19.00
73146;PMS7003;61345;48.922;2.244;2022-12-18T13:31:15;43.25;30.50;21.00
73146;PMS7003;61345;48.922;2.244;2022-12-18T13:36:43;46.50;34.00;22.00
73146;PMS7003;61345;48.922;2.244;2022-12-18T13:41:44;40.00;30.00;20.00
73146;PMS7003;61345;48.922;2.244;2022-12-18T13:46:47;40.25;28.50;19.25
73146;PMS7003;61345;48.922;2.244;2022-12-18T13:51:47;50.67;36.33;23.33
73146;PMS7003;61345;48.922;2.244;2022-12-18T13:57:02;49.00;33.00;18.25
73146;PMS7003;61345;48.922;2.244;2022-12-18T13:59:35;38.75;31.00;20.00
73146;PMS7003;61345;48.922;2.244;2022-12-18T14:04:37;42.25;32.25;21.25
73146;PMS7003;61345;48.922;2.244;2022-12-18T14:09:48;35.00;28.00;15.25
73146;PMS7003;61345;48.922;2.244;2022-12-18T14:12:16;48.00;32.25;21.75
73146;PMS7003;61345;48.922;2.244;2022-12-18T14:15:05;42.75;27.25;18.00
73146;PMS7003;61345;48.922;2.244;2022-12-18T14:17:34;40.50;29.00;18.75
73146;PMS7003;61345;48.922;2.244;2022-12-18T14:20:01;40.25;27.25;19.50
73146;PMS7003;61345;48.922;2.244;2022-12-18T14:22:26;41.00;33.00;22.50
73146;PMS7003;61345;48.922;2.244;2022-12-18T14:27:44;33.00;28.00;17.00
73146;PMS7003;61345;48.922;2.244;2022-12-18T14:30:35;39.50;34.50;22.00
73146;PMS7003;61345;48.922;2.244;2022-12-18T14:35:34;41.75;33.75;24.00
73146;PMS7003;61345;48.922;2.244;2022-12-18T14:40:55;52.50;36.00;24.25
73146;PMS7003;61345;48.922;2.244;2022-12-18T14:43:29;47.25;31.25;22.50
73146;PMS7003;61345;48.922;2.244;2022-12-18T14:45:57;40.75;36.50;25.00
73146;PMS7003;61345;48.922;2.244;2022-12-18T14:48:38;39.50;33.00;21.00
73146;PMS7003;61345;48.922;2.244;2022-12-18T14:51:15;37.50;28.00;21.00
73146;PMS7003;61345;48.922;2.244;2022-12-18T14:53:43;41.25;28.75;18.00
73146;PMS7003;61345;48.922;2.244;2022-12-18T14:56:15;46.00;30.50;21.00
73146;PMS7003;61345;48.922;2.244;2022-12-18T14:58:50;30.75;27.50;21.00
73146;PMS7003;61345;48.922;2.244;2022-12-18T15:01:19;43.25;30.50;20.00
73146;PMS7003;61345;48.922;2.244;2022-12-18T15:08:59;47.00;29.50;21.00
73146;PMS7003;61345;48.922;2.244;2022-12-18T15:11:32;39.25;30.25;21.25
73146;PMS7003;61345;48.922;2.244;2022-12-18T15:14:21;51.50;36.00;24.75
73146;PMS7003;61345;48.922;2.244;2022-12-18T15:16:50;43.25;32.50;24.75
73146;PMS7003;61345;48.922;2.244;2022-12-18T15:19:19;42.25;34.25;23.00
73146;PMS7003;61345;48.922;2.244;2022-12-18T15:21:46;39.00;28.00;19.00
73146;PMS7003;61345;48.922;2.244;2022-12-18T15:24:18;40.75;25.25;18.25
73146;PMS7003;61345;48.922;2.244;2022-12-18T15:26:45;29.25;26.25;19.50
73146;PMS7003;61345;48.922;2.244;2022-12-18T15:29:18;42.25;34.50;22.00
73146;PMS7003;61345;48.922;2.244;2022-12-18T15:32:01;42.25;35.50;23.50
73146;PMS7003;61345;48.922;2.244;2022-12-18T15:34:28;47.75;33.00;19.50
73146;PMS7003;61345;48.922;2.244;2022-12-18T15:36:54;48.50;30.00;18.50
73146;PMS7003;61345;48.922;2.244;2022-12-18T15:39:22;44.50;30.75;22.50
73146;PMS7003;61345;48.922;2.244;2022-12-18T15:41:47;45.25;32.00;22.00
73146;PMS7003;61345;48.922;2.244;2022-12-18T15:44:31;45.00;31.75;21.25
73146;PMS7003;61345;48.922;2.244;2022-12-18T15:46:57;42.25;33.25;23.50
73146;PMS7003;61345;48.922;2.244;2022-12-18T15:49:23;39.50;29.50;19.00
73146;PMS7003;61345;48.922;2.244;2022-12-18T15:51:50;45.25;37.50;24.25
73146;PMS7003;61345;48.922;2.244;2022-12-18T15:54:17;46.00;33.25;25.25
73146;PMS7003;61345;48.922;2.244;2022-12-18T15:57:03;49.00;33.75;22.25
73146;PMS7003;61345;48.922;2.244;2022-12-18T15:59:47;43.50;32.00;22.00
73146;PMS7003;61345;48.922;2.244;2022-12-18T16:02:33;50.50;35.50;23.50
73146;PMS7003;61345;48.922;2.244;2022-12-18T16:05:00;34.50;30.00;18.00
73146;PMS7003;61345;48.922;2.244;2022-12-18T16:07:26;50.50;37.25;25.25
73146;PMS7003;61345;48.922;2.244;2022-12-18T16:09:51;33.50;33.50;21.50
73146;PMS7003;61345;48.922;2.244;2022-12-18T16:12:17;47.50;39.00;24.50
73146;PMS7003;61345;48.922;2.244;2022-12-18T16:14:47;46.50;33.25;20.50
73146;PMS7003;61345;48.922;2.244;2022-12-18T16:17:12;53.25;33.25;22.00
73146;PMS7003;61345;48.922;2.244;2022-12-18T16:19:39;33.75;26.50;16.50